Time;durP1;ratioP1;P1;durP2;ratioP2;P2;SDS_P1;SDS_P2;PMS_P1;PMS_P2;Temp;Humidity;BMP_temperature;BMP_pressure;BME280_temperature;BME280_humidity;BME280_pressure;Samples;Min_cycle;Max_cycle;Signal;HPM_P1;HPM_P2
2022/04/18 00:00:16;;;;;;;;;8.00;6.67;;;25.60;97731.63;;;;116842;1197;25726;-48
2022/04/18 00:03:05;;;;;;;;;11.67;7.00;;;25.64;97728.39;;;;116551;1198;25150;-45
2022/04/18 00:05:50;;;;;;;;;10.00;9.00;;;25.67;97726.44;;;;116792;1197;25640;-47
2022/04/18 00:08:43;;;;;;;;;8.25;7.00;;;25.64;97726.10;;;;116768;1197;25319;-46
2022/04/18 00:11:11;;;;;;;;;10.75;8.00;;;25.61;97723.71;;;;116816;1197;25565;-45
2022/04/18 00:13:41;;;;;;;;;12.00;8.00;;;25.56;97719.07;;;;116713;1196;24944;-46
2022/04/18 00:16:15;;;;;;;;;9.00;7.75;;;25.54;97715.38;;;;116806;1196;25800;-47
2022/04/18 00:18:43;;;;;;;;;8.00;7.00;;;25.54;97715.30;;;;116626;1197;25327;-48
2022/04/18 00:21:25;;;;;;;;;13.25;9.25;;;25.51;97713.57;;;;116805;1196;25276;-45
2022/04/18 00:23:54;;;;;;;;;8.00;7.00;;;25.52;97711.09;;;;116772;1197;25588;-46
2022/04/18 00:26:22;;;;;;;;;9.00;7.50;;;25.48;97707.12;;;;116782;1197;24793;-47
2022/04/18 00:28:50;;;;;;;;;12.50;7.50;;;25.47;97704.94;;;;116778;1195;25678;-47
2022/04/18 00:31:22;;;;;;;;;8.00;5.00;;;25.47;97703.04;;;;116753;1196;24896;-46
2022/04/18 00:33:52;;;;;;;;;7.00;5.67;;;25.48;97699.73;;;;116829;1196;24878;-46
2022/04/18 00:36:26;;;;;;;;;6.00;4.50;;;25.50;97697.30;;;;116773;1197;25286;-46
2022/04/18 00:38:56;;;;;;;;;9.50;9.00;;;25.53;97691.64;;;;116782;1196;25168;-47
2022/04/18 00:41:27;;;;;;;;;7.00;7.00;;;25.55;97689.77;;;;116776;1197;25326;-46
2022/04/18 00:44:02;;;;;;;;;7.67;7.33;;;25.58;97689.61;;;;116787;1197;26132;-46
2022/04/18 00:46:33;;;;;;;;;9.50;6.00;;;25.61;97689.10;;;;116797;1196;25262;-47
2022/04/18 00:49:18;;;;;;;;;9.00;8.00;;;25.64;97689.69;;;;116777;1195;24873;-46
2022/04/18 00:51:46;;;;;;;;;9.67;8.00;;;25.66;97682.23;;;;116770;1197;25324;-46
2022/04/18 00:54:17;;;;;;;;;5.33;5.33;;;25.66;97682.56;;;;116759;1197;25459;-46
2022/04/18 00:56:49;;;;;;;;;5.67;5.33;;;25.71;97677.91;;;;116583;1197;25694;-47
2022/04/18 00:59:25;;;;;;;;;9.50;6.00;;;25.72;97676.55;;;;116484;1197;25557;-47
2022/04/18 01:01:58;;;;;;;;;11.25;6.00;;;25.74;97675.27;;;;116512;1197;25429;-46
2022/04/18 01:04:31;;;;;;;;;6.50;4.50;;;25.78;97674.45;;;;116587;1196;24971;-46
2022/04/18 01:07:05;;;;;;;;;4.00;4.00;;;25.84;97675.26;;;;116564;1196;25750;-45
2022/04/18 01:09:47;;;;;;;;;9.75;6.50;;;25.86;97675.30;;;;116517;1196;25848;-46
2022/04/18 01:12:16;;;;;;;;;7.25;4.50;;;25.85;97669.38;;;;116745;1198;26365;-46
2022/04/18 01:14:49;;;;;;;;;7.75;7.00;;;25.89;97665.95;;;;116804;1198;24919;-46
2022/04/18 01:17:22;;;;;;;;;11.00;7.00;;;25.90;97662.69;;;;116820;1197;25120;-45
2022/04/18 01:20:02;;;;;;;;;8.67;5.00;;;25.87;97656.54;;;;116749;1195;25337;-46
2022/04/18 01:22:30;;;;;;;;;7.50;6.50;;;25.86;97653.23;;;;116792;1196;25350;-46
2022/04/18 01:30:39;;;;;;;;;7.33;6.67;;;25.87;97644.92;;;;116818;1196;25453;-47
2022/04/18 01:33:34;;;;;;;;;4.25;4.25;;;25.86;97644.86;;;;116766;1198;25253;-46
2022/04/18 01:36:17;;;;;;;;;5.00;5.00;;;25.86;97644.05;;;;116759;1197;24847;-46
2022/04/18 01:39:09;;;;;;;;;6.00;6.00;;;25.82;97645.41;;;;116772;1196;25573;-46
2022/04/18 01:41:42;;;;;;;;;8.50;6.00;;;25.81;97637.75;;;;116768;1197;25286;-46
2022/04/18 01:44:10;;;;;;;;;6.33;6.00;;;25.78;97635.87;;;;116761;1197;25235;-46
2022/04/18 01:46:56;;;;;;;;;6.50;4.00;;;25.75;97634.44;;;;116755;1197;25809;-46
2022/04/18 01:49:50;;;;;;;;;3.50;3.50;;;25.74;97637.38;;;;116769;1197;25225;-46
2022/04/18 01:52:20;;;;;;;;;6.67;6.67;;;25.75;97634.11;;;;116791;1197;25546;-46
2022/04/18 01:54:48;;;;;;;;;5.50;4.00;;;25.71;97632.09;;;;116772;1197;25018;-46
2022/04/18 01:57:28;;;;;;;;;6.75;6.50;;;25.71;97630.67;;;;116768;1197;25513;-45
2022/04/18 02:00:23;;;;;;;;;4.25;4.25;;;25.69;97631.60;;;;116763;1197;25439;-45
2022/04/18 02:02:56;;;;;;;;;7.00;5.00;;;25.71;97626.47;;;;116773;1197;24832;-45
2022/04/18 02:05:26;;;;;;;;;5.33;5.33;;;25.68;97623.11;;;;116824;1197;25731;-46
2022/04/18 02:07:57;;;;;;;;;4.67;4.00;;;25.68;97621.14;;;;116769;1198;25384;-48
2022/04/18 02:10:30;;;;;;;;;5.75;5.75;;;25.66;97615.38;;;;116753;1196;25750;-47
2022/04/18 02:13:03;;;;;;;;;5.67;5.00;;;25.65;97615.27;;;;116785;1197;25137;-47
2022/04/18 02:15:59;;;;;;;;;6.33;4.67;;;25.66;97610.34;;;;116786;1196;24881;-46
2022/04/18 02:18:41;;;;;;;;;7.33;6.00;;;25.66;97609.35;;;;116784;1197;25787;-47
2022/04/18 02:21:11;;;;;;;;;3.00;3.00;;;25.63;97604.27;;;;116797;1196;24845;-47
2022/04/18 02:23:53;;;;;;;;;5.33;5.33;;;25.61;97601.80;;;;116807;1196;25137;-46
2022/04/18 02:26:46;;;;;;;;;5.33;5.33;;;25.61;97600.04;;;;116782;1197;25640;-46
2022/04/18 02:29:13;;;;;;;;;6.00;4.25;;;25.59;97593.34;;;;116789;1196;25262;-46
2022/04/18 02:32:48;;;;;;;;;6.00;5.00;;;25.55;97591.20;;;;116636;1197;26178;-46
2022/04/18 02:35:40;;;;;;;;;5.00;3.67;;;25.59;97590.64;;;;116553;1196;25141;-46
2022/04/18 02:38:08;;;;;;;;;8.00;6.00;;;25.51;97589.24;;;;116769;1197;25442;-46
2022/04/18 02:41:02;;;;;;;;;5.50;4.00;;;25.47;97583.86;;;;116832;1196;25364;-45
2022/04/18 02:43:32;;;;;;;;;7.50;7.00;;;25.50;97581.85;;;;116580;1196;24983;-46
2022/04/18 02:46:01;;;;;;;;;4.50;4.50;;;25.48;97580.03;;;;116536;1197;25183;-46
2022/04/18 02:48:52;;;;;;;;;5.50;4.50;;;25.47;97578.77;;;;116504;1197;25290;-47
2022/04/18 02:51:27;;;;;;;;;4.50;4.25;;;25.49;97579.09;;;;116535;1197;25603;-46
2022/04/18 02:54:11;;;;;;;;;4.33;4.33;;;25.47;97575.38;;;;116704;1198;25338;-47
2022/04/18 02:57:04;;;;;;;;;7.50;6.25;;;25.47;97576.14;;;;116782;1196;25118;-45
2022/04/18 02:59:35;;;;;;;;;7.50;6.50;;;25.48;97573.77;;;;116766;1197;25218;-46
2022/04/18 03:02:33;;;;;;;;;5.67;5.67;;;25.44;97571.04;;;;116788;1198;25755;-47
2022/04/18 03:05:20;;;;;;;;;7.33;5.67;;;25.47;97569.83;;;;116750;1196;25182;-45
2022/04/18 03:07:48;;;;;;;;;4.75;3.75;;;25.47;97567.84;;;;116873;1196;25342;-46
2022/04/18 03:13:25;;;;;;;;;6.33;6.00;;;25.41;97569.49;;;;116830;1197;25234;-46
2022/04/18 03:15:53;;;;;;;;;4.00;3.00;;;25.40;97568.15;;;;116806;1196;25658;-47
2022/04/18 03:18:23;;;;;;;;;5.50;5.50;;;25.36;97569.14;;;;116776;1196;25606;-46
2022/04/18 03:20:54;;;;;;;;;5.67;4.00;;;25.35;97567.91;;;;116852;1196;24950;-46
2022/04/18 03:23:48;;;;;;;;;5.50;5.00;;;25.35;97564.89;;;;116782;1195;24899;-47
2022/04/18 03:26:27;;;;;;;;;5.75;4.25;;;25.37;97562.19;;;;116771;1197;25161;-47
2022/04/18 03:29:20;;;;;;;;;3.00;3.00;;;25.31;97563.63;;;;116805;1197;24892;-46
2022/04/18 03:32:07;;;;;;;;;5.33;4.00;;;25.33;97563.63;;;;116755;1197;26052;-46
2022/04/18 03:35:34;;;;;;;;;6.00;5.00;;;25.35;97561.84;;;;116769;1196;25196;-46
2022/04/18 03:40:57;;;;;;;;;6.50;4.25;;;25.33;97554.35;;;;116780;1196;25172;-46
2022/04/18 03:43:31;;;;;;;;;7.00;5.00;;;25.33;97553.19;;;;116746;1195;25731;-46
2022/04/18 03:46:17;;;;;;;;;6.50;5.00;;;25.33;97552.40;;;;116798;1197;24851;-46
2022/04/18 03:48:49;;;;;;;;;5.50;5.50;;;25.41;97554.19;;;;116841;1197;25755;-46
2022/04/18 03:51:36;;;;;;;;;6.50;5.25;;;25.44;97553.02;;;;116789;1196;24831;-46
2022/04/18 03:54:07;;;;;;;;;12.50;6.25;;;25.55;97554.64;;;;116775;1196;25175;-46
2022/04/18 03:56:38;;;;;;;;;5.00;3.33;;;25.54;97555.34;;;;116948;1196;25150;-45
2022/04/18 03:59:08;;;;;;;;;10.33;7.67;;;25.57;97553.23;;;;116798;1196;25880;-46
2022/04/18 04:01:45;;;;;;;;;9.50;5.75;;;25.59;97552.23;;;;116791;1197;25653;-45
2022/04/18 04:04:18;;;;;;;;;8.00;6.00;;;25.64;97551.17;;;;116729;1196;25553;-47
2022/04/18 04:06:57;;;;;;;;;5.00;2.33;;;25.63;97552.83;;;;116769;1197;25034;-45
2022/04/18 04:09:50;;;;;;;;;10.00;7.33;;;25.62;97550.12;;;;116755;1197;24950;-46
2022/04/18 04:12:33;;;;;;;;;12.50;7.00;;;25.62;97545.13;;;;116772;1197;24859;-47
2022/04/18 04:15:06;;;;;;;;;10.00;5.75;;;25.60;97540.16;;;;116780;1197;24902;-45
2022/04/18 04:17:52;;;;;;;;;8.00;7.00;;;25.62;97536.59;;;;116800;1196;24756;-46
2022/04/18 04:20:22;;;;;;;;;8.67;6.33;;;25.56;97535.66;;;;116756;1196;25239;-46
2022/04/18 04:22:52;;;;;;;;;9.75;6.50;;;25.50;97530.45;;;;116794;1197;25109;-45
2022/04/18 04:25:45;;;;;;;;;6.00;5.00;;;25.50;97532.49;;;;116757;1197;25344;-45
2022/04/18 04:28:13;;;;;;;;;6.50;6.25;;;25.47;97532.59;;;;116780;1197;24805;-46
2022/04/18 04:31:06;;;;;;;;;10.00;7.00;;;25.46;97533.38;;;;116786;1196;25016;-46
2022/04/18 04:33:59;;;;;;;;;7.50;6.25;;;25.42;97531.85;;;;116758;1197;25149;-47
2022/04/18 04:36:27;;;;;;;;;5.33;4.33;;;25.39;97532.20;;;;116767;1197;24832;-46
2022/04/18 04:38:55;;;;;;;;;7.00;5.25;;;25.33;97531.27;;;;116801;1196;24988;-46
2022/04/18 04:41:50;;;;;;;;;8.00;6.67;;;25.31;97528.67;;;;116818;1196;25675;-46
2022/04/18 04:44:34;;;;;;;;;8.50;7.50;;;25.32;97527.98;;;;116804;1197;25663;-46
2022/04/18 04:47:27;;;;;;;;;9.00;7.67;;;25.27;97524.72;;;;116843;1196;25644;-45
2022/04/18 04:49:57;;;;;;;;;7.00;6.33;;;25.30;97523.42;;;;116858;1194;25719;-52
2022/04/18 04:52:25;;;;;;;;;7.00;7.00;;;25.33;97521.95;;;;116853;1197;24895;-52
2022/04/18 04:54:56;;;;;;;;;7.00;6.00;;;25.43;97521.59;;;;116798;1196;25234;-55
2022/04/18 04:57:27;;;;;;;;;11.00;6.25;;;25.51;97521.05;;;;116754;1197;24842;-58
2022/04/18 04:59:56;;;;;;;;;8.00;8.00;;;25.55;97523.55;;;;116838;1197;25283;-50
2022/04/18 05:02:24;;;;;;;;;9.00;7.50;;;25.60;97528.34;;;;116703;1198;24835;-55
2022/04/18 05:04:59;;;;;;;;;10.00;7.33;;;25.65;97529.23;;;;116751;1196;25487;-52
2022/04/18 05:07:26;;;;;;;;;9.67;6.67;;;25.71;97527.04;;;;116591;1196;25012;-54
2022/04/18 05:09:54;;;;;;;;;7.67;6.67;;;25.77;97528.02;;;;116484;1196;25782;-57
2022/04/18 05:12:22;;;;;;;;;8.00;8.00;;;25.80;97526.77;;;;116651;1197;25460;-52
2022/04/18 05:14:50;;;;;;;;;7.00;6.50;;;25.89;97526.61;;;;116678;1196;25557;-53
2022/04/18 05:17:18;;;;;;;;;9.00;8.00;;;25.93;97527.39;;;;116749;1197;24757;-54
2022/04/18 05:19:48;;;;;;;;;7.25;7.25;;;25.98;97528.52;;;;116845;1196;25341;-55
2022/04/18 05:22:16;;;;;;;;;9.00;5.50;;;26.02;97528.69;;;;116846;1196;25408;-51
2022/04/18 05:24:44;;;;;;;;;10.75;7.00;;;26.04;97530.46;;;;116750;1195;25682;-57
2022/04/18 05:27:15;;;;;;;;;7.00;7.00;;;26.02;97528.23;;;;116784;1197;26063;-58
2022/04/18 05:29:43;;;;;;;;;9.33;9.33;;;26.00;97527.56;;;;116995;1196;24967;-56
2022/04/18 05:32:17;;;;;;;;;9.00;8.00;;;26.05;97526.17;;;;116842;1197;25238;-58
2022/04/18 05:34:45;;;;;;;;;7.25;7.25;;;26.02;97525.70;;;;116800;1196;25014;-58
2022/04/18 05:37:14;;;;;;;;;8.33;4.00;;;26.05;97525.48;;;;116826;1197;24960;-55
2022/04/18 05:39:42;;;;;;;;;10.75;7.25;;;26.07;97519.33;;;;116743;1197;25358;-55
2022/04/18 05:42:10;;;;;;;;;7.50;5.00;;;26.03;97525.26;;;;116902;1197;24952;-56
2022/04/18 05:44:39;;;;;;;;;8.67;7.00;;;26.03;97523.54;;;;116745;1197;25224;-56
2022/04/18 05:47:32;;;;;;;;;8.75;7.75;;;26.00;97522.86;;;;116658;1197;25516;-55
2022/04/18 05:50:06;;;;;;;;;7.25;7.00;;;26.04;97520.98;;;;116647;1197;25463;-53
2022/04/18 05:52:34;;;;;;;;;7.67;7.67;;;26.09;97515.30;;;;116516;1197;25465;-54
2022/04/18 05:55:06;;;;;;;;;10.33;10.00;;;26.00;97519.88;;;;116563;1197;25375;-55
2022/04/18 05:57:35;;;;;;;;;12.67;8.67;;;25.90;97520.44;;;;116793;1197;24783;-54
2022/04/18 06:00:07;;;;;;;;;7.50;6.50;;;25.94;97519.09;;;;116888;1197;25163;-56
2022/04/18 06:02:34;;;;;;;;;9.50;8.00;;;25.99;97518.73;;;;116745;1198;25306;-55
2022/04/18 06:05:09;;;;;;;;;10.00;7.00;;;25.98;97517.58;;;;116829;1197;25259;-53
2022/04/18 06:07:51;;;;;;;;;5.00;3.00;;;26.04;97516.66;;;;116724;1196;25426;-53
2022/04/18 06:10:20;;;;;;;;;7.33;7.00;;;26.05;97511.52;;;;116806;1197;25384;-49
2022/04/18 06:12:49;;;;;;;;;6.67;6.00;;;26.03;97512.33;;;;116880;1197;25283;-54
2022/04/18 06:15:19;;;;;;;;;11.50;6.50;;;26.07;97513.19;;;;116822;1197;24965;-55
2022/04/18 06:17:47;;;;;;;;;8.00;5.50;;;26.09;97509.58;;;;116896;1197;24859;-50
2022/04/18 06:20:21;;;;;;;;;8.75;8.75;;;26.14;97510.58;;;;116637;1197;25037;-47
2022/04/18 06:22:49;;;;;;;;;8.00;7.50;;;26.19;97508.38;;;;116598;1196;25536;-47
2022/04/18 06:25:16;;;;;;;;;9.00;7.67;;;26.15;97508.41;;;;116639;1196;25378;-48
2022/04/18 06:27:44;;;;;;;;;9.33;7.33;;;26.11;97505.46;;;;116924;1196;24843;-51
2022/04/18 06:30:15;;;;;;;;;5.33;5.33;;;26.13;97506.39;;;;116770;1196;24845;-51
2022/04/18 06:32:44;;;;;;;;;10.75;8.00;;;26.13;97505.80;;;;116705;1197;24716;-51
2022/04/18 06:35:16;;;;;;;;;4.50;3.00;;;26.07;97505.63;;;;116844;1198;26284;-52
2022/04/18 06:37:44;;;;;;;;;6.00;6.00;;;26.16;97507.02;;;;116864;1197;25663;-51
2022/04/18 06:40:15;;;;;;;;;10.00;9.00;;;26.16;97507.17;;;;116997;1196;25574;-58
2022/04/18 06:42:43;;;;;;;;;9.00;8.33;;;26.29;97502.44;;;;116775;1195;25335;-56
2022/04/18 06:45:10;;;;;;;;;12.00;10.75;;;26.29;97501.09;;;;116690;1196;25329;-52
2022/04/18 06:47:39;;;;;;;;;10.25;10.25;;;26.30;97500.83;;;;116952;1196;25457;-53
2022/04/18 06:50:11;;;;;;;;;15.75;14.00;;;26.38;97500.77;;;;116782;1197;25105;-51
2022/04/18 06:52:49;;;;;;;;;14.75;12.00;;;26.42;97500.31;;;;116788;1197;25009;-46
2022/04/18 06:55:23;;;;;;;;;23.00;21.00;;;26.52;97495.55;;;;116742;1196;25397;-53
2022/04/18 06:57:57;;;;;;;;;40.67;37.33;;;26.59;97498.53;;;;116791;1196;25265;-53
2022/04/18 07:00:25;;;;;;;;;44.00;37.67;;;26.66;97498.05;;;;116774;1197;25041;-43
2022/04/18 07:02:53;;;;;;;;;55.00;44.00;;;26.71;97497.66;;;;116773;1197;24934;-48
2022/04/18 07:05:22;;;;;;;;;69.50;52.00;;;26.77;97495.94;;;;116778;1197;25056;-48
2022/04/18 07:07:50;;;;;;;;;62.33;50.33;;;26.81;97496.02;;;;116762;1197;25136;-52
2022/04/18 07:10:20;;;;;;;;;31.33;26.67;;;26.89;97493.40;;;;116897;1196;25812;-53
2022/04/18 07:12:50;;;;;;;;;32.00;30.67;;;27.02;97493.61;;;;116762;1196;25341;-51
2022/04/18 07:15:20;;;;;;;;;47.50;38.00;;;27.02;97492.17;;;;116748;1198;25248;-50
2022/04/18 07:17:48;;;;;;;;;45.67;38.67;;;27.05;97489.61;;;;116818;1198;24714;-52
2022/04/18 07:20:15;;;;;;;;;51.33;40.33;;;27.14;97485.38;;;;116826;1197;25107;-50
2022/04/18 07:22:45;;;;;;;;;42.50;36.00;;;27.14;97485.55;;;;116740;1196;25753;-53
2022/04/18 07:25:15;;;;;;;;;51.00;42.50;;;27.10;97481.16;;;;116698;1197;25390;-51
2022/04/18 07:27:44;;;;;;;;;55.00;45.00;;;27.10;97479.02;;;;116798;1196;25493;-55
2022/04/18 07:30:13;;;;;;;;;55.00;45.00;;;27.10;97476.50;;;;116944;1196;25714;-51
2022/04/18 07:32:44;;;;;;;;;43.50;38.00;;;27.13;97473.66;;;;116995;1197;24793;-51
2022/04/18 07:35:14;;;;;;;;;55.00;43.67;;;27.19;97467.80;;;;116757;1196;25157;-52
2022/04/18 07:40:31;;;;;;;;;61.67;49.00;;;27.28;97464.52;;;;116838;1196;25750;-49
2022/04/18 07:42:58;;;;;;;;;62.00;50.00;;;27.28;97464.23;;;;116763;1197;25233;-48
2022/04/18 07:45:27;;;;;;;;;65.00;51.00;;;27.28;97462.02;;;;116896;1196;25220;-48
2022/04/18 07:47:58;;;;;;;;;60.00;48.00;;;27.30;97457.86;;;;116777;1196;25702;-50
2022/04/18 07:53:17;;;;;;;;;69.00;56.50;;;27.38;97462.20;;;;116713;1197;25607;-46
2022/04/18 07:55:48;;;;;;;;;67.00;52.00;;;27.34;97458.98;;;;116750;1197;25065;-50
2022/04/18 07:58:21;;;;;;;;;69.33;53.67;;;27.27;97454.92;;;;116859;1197;25804;-51
2022/04/18 08:00:51;;;;;;;;;74.33;59.00;;;27.31;97454.52;;;;116883;1197;25454;-52
2022/04/18 08:03:23;;;;;;;;;78.50;63.50;;;27.33;97455.17;;;;116752;1197;25820;-50
2022/04/18 08:05:58;;;;;;;;;71.00;55.00;;;27.29;97451.45;;;;116880;1197;25171;-52
2022/04/18 08:08:28;;;;;;;;;63.75;51.50;;;27.36;97449.77;;;;116968;1197;25272;-50
2022/04/18 08:10:59;;;;;;;;;65.00;52.00;;;27.41;97449.50;;;;116732;1197;25229;-46
2022/04/18 08:13:30;;;;;;;;;74.25;57.75;;;27.40;97453.98;;;;116768;1197;25357;-49
2022/04/18 08:15:58;;;;;;;;;65.00;54.00;;;27.37;97442.27;;;;116770;1196;25386;-48
2022/04/18 08:18:28;;;;;;;;;59.67;47.00;;;27.29;97445.65;;;;116915;1197;24980;-47
2022/04/18 08:21:02;;;;;;;;;50.33;40.00;;;27.23;97443.95;;;;116929;1196;25372;-50
2022/04/18 08:23:32;;;;;;;;;34.00;31.00;;;27.09;97444.36;;;;116760;1197;25121;-44
2022/04/18 08:26:03;;;;;;;;;31.00;28.00;;;26.81;97445.86;;;;116818;1196;25433;-48
2022/04/18 08:28:31;;;;;;;;;24.50;23.00;;;26.68;97442.70;;;;116757;1197;25349;-48
2022/04/18 08:31:02;;;;;;;;;41.33;33.67;;;26.46;97436.59;;;;116803;1197;25853;-48
2022/04/18 08:33:34;;;;;;;;;33.50;29.50;;;26.32;97432.77;;;;116805;1196;25592;-46
2022/04/18 08:36:06;;;;;;;;;24.33;20.33;;;26.31;97426.20;;;;117090;1197;25336;-53
2022/04/18 08:38:37;;;;;;;;;17.00;16.00;;;26.33;97424.56;;;;116876;1197;25324;-50
2022/04/18 08:41:07;;;;;;;;;18.33;18.33;;;26.25;97426.95;;;;116859;1197;25331;-48
2022/04/18 08:43:38;;;;;;;;;20.50;20.00;;;26.14;97426.77;;;;117432;1197;25399;-50
2022/04/18 08:46:06;;;;;;;;;30.00;23.00;;;26.29;97423.66;;;;117216;1198;25406;-47
2022/04/18 08:54:13;;;;;;;;;12.50;11.00;;;26.07;97414.90;;;;116917;1196;25000;-47
2022/04/18 08:56:41;;;;;;;;;11.00;10.00;;;25.87;97414.52;;;;116739;1196;24861;-48
2022/04/18 08:59:09;;;;;;;;;10.50;8.50;;;25.72;97407.30;;;;116879;1197;25714;-49
2022/04/18 09:01:50;;;;;;;;;8.75;7.00;;;25.58;97412.52;;;;116936;1197;24855;-52
2022/04/18 09:04:22;;;;;;;;;8.33;6.67;;;25.64;97409.29;;;;116827;1197;25564;-51
2022/04/18 09:06:52;;;;;;;;;6.33;6.33;;;25.54;97412.09;;;;116999;1197;25121;-50
2022/04/18 09:09:27;;;;;;;;;7.50;7.00;;;25.48;97408.56;;;;116856;1198;25391;-47
2022/04/18 09:11:59;;;;;;;;;6.00;5.00;;;25.35;97403.65;;;;116772;1197;25582;-46
2022/04/18 09:14:27;;;;;;;;;6.50;6.50;;;25.16;97405.44;;;;116806;1196;25216;-46
2022/04/18 09:16:56;;;;;;;;;4.50;4.50;;;25.08;97398.34;;;;116733;1195;25463;-48
2022/04/18 09:19:27;;;;;;;;;6.00;6.00;;;25.02;97396.58;;;;116836;1197;25142;-48
2022/04/18 09:21:54;;;;;;;;;7.25;4.50;;;25.04;97392.04;;;;116933;1197;24984;-51
2022/04/18 09:24:32;;;;;;;;;7.75;6.75;;;25.08;97388.45;;;;117087;1196;26052;-49
2022/04/18 09:27:06;;;;;;;;;8.00;7.00;;;25.19;97380.59;;;;116902;1197;24833;-52
2022/04/18 09:29:39;;;;;;;;;47.00;37.50;;;25.19;97371.27;;;;116983;1197;25790;-48
2022/04/18 09:32:09;;;;;;;;;28.33;24.67;;;25.17;97372.73;;;;116832;1196;25714;-50
2022/04/18 09:34:38;;;;;;;;;34.67;26.00;;;25.04;97373.11;;;;116944;1197;25250;-52
2022/04/18 09:37:13;;;;;;;;;34.00;26.50;;;25.04;97367.65;;;;117099;1197;25398;-48
2022/04/18 09:39:50;;;;;;;;;29.00;24.00;;;25.18;97358.77;;;;116724;1197;24760;-51
2022/04/18 09:42:25;;;;;;;;;22.50;21.00;;;25.28;97355.51;;;;116671;1197;26141;-47
2022/04/18 09:44:55;;;;;;;;;28.33;23.33;;;25.37;97348.36;;;;116657;1197;25178;-48
2022/04/18 09:47:26;;;;;;;;;26.67;23.00;;;25.40;97348.35;;;;116737;1196;24965;-50
2022/04/18 09:49:55;;;;;;;;;26.00;24.00;;;25.43;97343.19;;;;116986;1196;25366;-51
2022/04/18 09:52:23;;;;;;;;;25.00;22.50;;;25.53;97340.65;;;;116815;1197;25664;-47
2022/04/18 09:54:55;;;;;;;;;28.00;21.67;;;25.58;97345.15;;;;116969;1197;25745;-45
2022/04/18 09:57:25;;;;;;;;;24.00;21.33;;;25.65;97343.39;;;;116727;1197;25471;-50
2022/04/18 09:59:58;;;;;;;;;22.00;17.00;;;25.72;97346.28;;;;116803;1197;25552;-48
2022/04/18 10:02:28;;;;;;;;;22.00;18.67;;;25.76;97346.35;;;;116788;1198;24875;-47
2022/04/18 10:04:58;;;;;;;;;22.00;19.50;;;25.79;97343.62;;;;116816;1197;24728;-47
2022/04/18 10:07:25;;;;;;;;;19.00;18.00;;;25.85;97345.84;;;;116872;1196;25643;-51
2022/04/18 10:09:55;;;;;;;;;21.00;17.33;;;25.91;97341.42;;;;116873;1197;25503;-49
2022/04/18 10:12:26;;;;;;;;;21.50;18.00;;;26.01;97341.81;;;;116704;1196;25391;-51
2022/04/18 10:14:58;;;;;;;;;21.25;17.00;;;26.06;97339.70;;;;116740;1197;25218;-52
2022/04/18 10:17:27;;;;;;;;;18.00;16.50;;;26.05;97335.52;;;;116784;1196;25193;-54
2022/04/18 10:20:06;;;;;;;;;18.00;16.00;;;26.03;97334.45;;;;116761;1198;24934;-53
2022/04/18 10:22:57;;;;;;;;;13.50;12.00;;;26.14;97333.60;;;;116630;1198;25755;-48
2022/04/18 10:26:01;;;;;;;;;15.75;12.75;;;26.19;97334.14;;;;116926;1196;25727;-47
2022/04/18 10:28:36;;;;;;;;;12.33;12.00;;;26.31;97332.36;;;;116762;1197;25022;-48
2022/04/18 10:31:11;;;;;;;;;14.00;12.33;;;26.29;97331.84;;;;116747;1196;25239;-47
2022/04/18 10:33:40;;;;;;;;;10.67;8.67;;;26.24;97329.58;;;;116716;1197;24802;-47
2022/04/18 10:36:08;;;;;;;;;6.75;5.75;;;26.22;97331.30;;;;116850;1196;25439;-49
2022/04/18 10:38:40;;;;;;;;;10.00;6.67;;;26.11;97332.86;;;;116755;1197;25042;-47
2022/04/18 10:41:38;;;;;;;;;7.67;5.33;;;25.53;97335.59;;;;116841;1197;24846;-46
2022/04/18 10:44:08;;;;;;;;;7.25;4.25;;;25.28;97326.66;;;;116835;1196;25347;-46
2022/04/18 10:46:39;;;;;;;;;6.25;5.75;;;25.23;97320.13;;;;116889;1197;25731;-49
2022/04/18 10:49:31;;;;;;;;;10.67;7.33;;;25.33;97319.23;;;;116880;1197;25235;-46
2022/04/18 10:52:18;;;;;;;;;7.67;7.00;;;25.47;97313.55;;;;116966;1196;25064;-48
2022/04/18 10:55:10;;;;;;;;;9.00;9.00;;;25.64;97309.42;;;;116844;1197;25915;-50
2022/04/18 10:57:40;;;;;;;;;15.00;11.50;;;25.81;97308.27;;;;116728;1197;25367;-49
2022/04/18 11:00:09;;;;;;;;;8.00;7.50;;;25.84;97306.14;;;;116875;1197;25018;-51
2022/04/18 11:02:43;;;;;;;;;10.67;10.00;;;25.89;97304.69;;;;116682;1198;25742;-52
2022/04/18 11:05:11;;;;;;;;;9.33;7.00;;;25.96;97307.34;;;;116685;1195;25640;-50
2022/04/18 11:07:40;;;;;;;;;8.67;8.00;;;25.98;97297.59;;;;116795;1197;24969;-52
2022/04/18 11:10:18;;;;;;;;;6.67;6.67;;;26.04;97301.67;;;;116789;1196;24860;-52
2022/04/18 11:12:47;;;;;;;;;11.00;8.75;;;26.07;97293.19;;;;116816;1197;25422;-52
2022/04/18 11:15:16;;;;;;;;;8.67;7.67;;;26.11;97298.58;;;;116894;1197;25314;-47
2022/04/18 11:17:44;;;;;;;;;8.25;7.75;;;26.20;97296.94;;;;116907;1197;24765;-48
2022/04/18 11:20:35;;;;;;;;;5.50;3.75;;;26.30;97299.05;;;;116866;1196;25611;-50
2022/04/18 11:23:27;;;;;;;;;7.67;7.67;;;26.36;97297.46;;;;116889;1196;25053;-48
2022/04/18 11:26:03;;;;;;;;;10.00;6.67;;;26.42;97299.38;;;;116764;1197;24800;-46
2022/04/18 11:28:36;;;;;;;;;10.00;7.50;;;26.39;97296.01;;;;116967;1197;25101;-49
2022/04/18 11:31:18;;;;;;;;;6.00;5.50;;;26.45;97295.79;;;;116843;1198;25466;-48
2022/04/18 11:33:48;;;;;;;;;7.00;6.50;;;26.52;97300.78;;;;116725;1197;25320;-53
2022/04/18 11:36:26;;;;;;;;;7.25;4.25;;;26.52;97307.38;;;;116734;1195;25716;-50
2022/04/18 11:39:06;;;;;;;;;11.33;11.00;;;26.58;97304.64;;;;116734;1197;25242;-53
2022/04/18 11:41:35;;;;;;;;;8.75;7.25;;;26.61;97301.10;;;;116752;1196;25392;-52
2022/04/18 11:44:03;;;;;;;;;8.25;7.00;;;26.62;97296.48;;;;116900;1196;25698;-52
2022/04/18 11:46:32;;;;;;;;;8.00;7.75;;;26.67;97295.45;;;;116867;1197;24962;-50
2022/04/18 11:49:02;;;;;;;;;9.00;7.50;;;26.72;97292.55;;;;116749;1197;25653;-47
2022/04/18 11:51:56;;;;;;;;;8.50;6.00;;;26.69;97286.20;;;;116725;1197;25846;-49
2022/04/18 11:54:27;;;;;;;;;7.33;7.00;;;26.78;97277.01;;;;116830;1196;25552;-46
2022/04/18 11:57:03;;;;;;;;;6.50;5.50;;;26.85;97275.42;;;;116748;1197;26201;-52
2022/04/18 11:59:32;;;;;;;;;12.25;7.00;;;26.86;97272.27;;;;116781;1196;24804;-47
2022/04/18 12:07:34;;;;;;;;;6.33;6.33;;;27.08;97260.23;;;;116843;1197;25663;-46
2022/04/18 12:10:24;;;;;;;;;9.00;6.33;;;27.06;97253.10;;;;116792;1198;26459;-52
2022/04/18 12:12:52;;;;;;;;;6.50;5.50;;;27.11;97248.98;;;;116788;1196;25239;-51
2022/04/18 12:15:25;;;;;;;;;7.33;6.67;;;27.18;97244.33;;;;116800;1197;25205;-52
2022/04/18 12:17:54;;;;;;;;;8.00;5.67;;;27.27;97242.79;;;;116777;1197;26164;-50
2022/04/18 12:20:29;;;;;;;;;8.00;5.33;;;27.37;97241.41;;;;116453;1196;24851;-45
2022/04/18 12:22:59;;;;;;;;;6.00;6.00;;;27.37;97240.73;;;;116702;1197;24894;-50
2022/04/18 12:25:31;;;;;;;;;5.33;5.00;;;27.39;97232.52;;;;116967;1197;25632;-49
2022/04/18 12:28:06;;;;;;;;;6.67;4.00;;;27.51;97233.37;;;;116875;1197;25594;-49
2022/04/18 12:30:34;;;;;;;;;11.25;7.75;;;27.57;97229.67;;;;116910;1197;25541;-47
2022/04/18 12:33:20;;;;;;;;;8.67;6.67;;;27.66;97232.90;;;;117274;1197;25364;-54
2022/04/18 12:35:56;;;;;;;;;12.00;7.00;;;27.75;97232.54;;;;116884;1196;24819;-48
2022/04/18 12:38:34;;;;;;;;;6.75;5.00;;;27.73;97231.27;;;;116856;1197;25112;-53
2022/04/18 12:41:05;;;;;;;;;8.00;7.00;;;27.68;97230.45;;;;116845;1196;25249;-51
2022/04/18 12:43:34;;;;;;;;;3.75;3.75;;;27.64;97226.58;;;;116814;1198;25618;-48
2022/04/18 12:46:12;;;;;;;;;6.50;6.00;;;27.61;97227.61;;;;116756;1197;25307;-46
2022/04/18 12:48:51;;;;;;;;;11.75;9.00;;;27.58;97225.90;;;;116782;1197;25134;-50
2022/04/18 12:51:34;;;;;;;;;10.00;6.67;;;27.63;97227.30;;;;116722;1197;25715;-45
2022/04/18 12:54:23;;;;;;;;;8.33;7.00;;;27.65;97227.30;;;;116896;1196;25238;-47
2022/04/18 12:56:53;;;;;;;;;10.25;8.25;;;27.71;97226.34;;;;116804;1197;25208;-47
2022/04/18 12:59:25;;;;;;;;;10.67;10.00;;;27.78;97222.70;;;;116823;1197;25179;-47
2022/04/18 13:02:08;;;;;;;;;11.33;8.00;;;27.78;97218.30;;;;116844;1197;24886;-48
2022/04/18 13:04:38;;;;;;;;;13.33;8.00;;;27.85;97217.06;;;;116818;1197;25469;-51